Time;durP1;ratioP1;P1;durP2;ratioP2;P2;SDS_P1;SDS_P2;PMS_P1;PMS_P2;Temp;Humidity;BMP_temperature;BMP_pressure;BME280_temperature;BME280_humidity;BME280_pressure;Samples;Min_cycle;Max_cycle;Signal;HPM_P1;HPM_P2
2023/10/05 00:01:46;;;;;;;6.93;3.47;;;;;;;11.07;100.00;99096.63;5117170;28;20612;-73
2023/10/05 00:04:15;;;;;;;4.50;3.30;;;;;;;11.04;100.00;99089.88;5117133;28;20635;-73
2023/10/05 00:06:45;;;;;;;6.90;3.60;;;;;;;10.99;100.00;99083.50;5116795;28;20689;-73
2023/10/05 00:09:15;;;;;;;6.13;3.40;;;;;;;10.97;100.00;99074.88;5117202;28;20231;-73
2023/10/05 00:11:42;;;;;;;6.00;3.60;;;;;;;10.95;100.00;99088.38;5116926;28;20194;-73
2023/10/05 00:14:12;;;;;;;9.17;3.43;;;;;;;10.88;100.00;99084.06;5117202;28;20214;-73
2023/10/05 00:16:38;;;;;;;4.60;3.13;;;;;;;10.92;100.00;99082.66;5116409;28;20223;-73
2023/10/05 00:19:12;;;;;;;6.10;3.30;;;;;;;10.83;100.00;99076.69;5116432;28;20227;-73
2023/10/05 00:21:50;;;;;;;6.30;3.63;;;;;;;10.91;100.00;99078.34;5116827;28;20191;-73
2023/10/05 00:24:29;;;;;;;6.00;3.47;;;;;;;11.01;100.00;99074.28;5116453;27;20773;-73
2023/10/05 00:26:58;;;;;;;6.50;3.63;;;;;;;10.96;100.00;99071.41;5116762;28;20237;-73
2023/10/05 00:29:27;;;;;;;7.60;3.73;;;;;;;10.94;100.00;99067.28;5116209;28;20219;-73
2023/10/05 00:31:57;;;;;;;4.23;3.20;;;;;;;10.89;100.00;99072.38;5116661;28;20210;-73
2023/10/05 00:34:27;;;;;;;5.73;3.37;;;;;;;10.90;100.00;99061.56;5116187;28;20203;-73
2023/10/05 00:36:58;;;;;;;6.80;3.30;;;;;;;10.80;100.00;99062.91;5116363;28;20210;-73
2023/10/05 00:39:25;;;;;;;6.13;3.13;;;;;;;10.74;100.00;99053.06;5116249;28;20227;-73
2023/10/05 00:42:02;;;;;;;3.70;3.10;;;;;;;10.84;100.00;99056.19;5116337;28;20203;-73
2023/10/05 00:44:30;;;;;;;5.17;2.80;;;;;;;10.85;100.00;99071.13;5116339;27;20650;-73
2023/10/05 00:46:59;;;;;;;3.53;2.60;;;;;;;10.85;100.00;99071.13;5116220;28;20199;-73
2023/10/05 00:49:37;;;;;;;4.93;2.77;;;;;;;10.83;100.00;99065.19;5116073;28;20227;-73
2023/10/05 00:52:12;;;;;;;4.50;2.40;;;;;;;10.81;100.00;99061.91;5116191;28;20192;-73
2023/10/05 00:54:44;;;;;;;4.67;2.70;;;;;;;10.77;100.00;99055.34;5115781;28;20282;-73
2023/10/05 00:57:14;;;;;;;6.40;3.27;;;;;;;10.74;100.00;99053.91;5115081;28;20192;-73
2023/10/05 00:59:46;;;;;;;6.47;3.23;;;;;;;10.82;100.00;99042.28;5115931;28;20219;-73
2023/10/05 01:02:16;;;;;;;4.67;3.17;;;;;;;10.82;100.00;99032.44;5116036;28;20318;-73
2023/10/05 01:04:57;;;;;;;5.30;2.90;;;;;;;10.80;100.00;99037.16;5115548;28;20631;-73
2023/10/05 01:07:29;;;;;;;6.13;3.20;;;;;;;10.87;100.00;99031.88;5115896;28;20686;-73
2023/10/05 01:12:45;;;;;;;6.53;3.27;;;;;;;10.87;100.00;99031.88;5101420;27;20199;-73
2023/10/05 01:15:19;;;;;;;5.63;3.00;;;;;;;10.84;100.00;99019.78;5115300;28;20639;-73
2023/10/05 01:17:46;;;;;;;5.50;3.00;;;;;;;10.92;100.00;99021.44;5115690;28;20261;-73
2023/10/05 01:20:22;;;;;;;4.47;3.00;;;;;;;10.90;100.00;99015.50;5115579;28;20219;-73
2023/10/05 01:22:55;;;;;;;6.13;3.10;;;;;;;10.93;100.00;99017.75;5115402;28;20240;-73
2023/10/05 01:25:22;;;;;;;5.73;3.50;;;;;;;10.90;100.00;99010.16;5115535;28;20643;-73
2023/10/05 01:27:52;;;;;;;6.53;3.43;;;;;;;10.76;100.00;99019.94;5115100;28;20777;-73
2023/10/05 01:30:21;;;;;;;7.47;3.70;;;;;;;10.78;100.00;99019.75;5115071;28;20209;-73
2023/10/05 01:32:48;;;;;;;3.37;3.03;;;;;;;10.79;100.00;99013.41;5115408;27;20235;-73
2023/10/05 01:35:17;;;;;;;6.27;2.83;;;;;;;10.82;100.00;99019.13;5115359;28;20249;-73
2023/10/05 01:37:45;;;;;;;3.93;3.00;;;;;;;10.82;100.00;99027.13;5115246;27;20234;-73
2023/10/05 01:40:23;;;;;;;5.63;3.13;;;;;;;10.81;100.00;99029.97;5115187;27;20307;-73
2023/10/05 01:42:51;;;;;;;4.27;3.10;;;;;;;10.85;100.00;99023.25;5114946;28;20187;-73
2023/10/05 01:45:25;;;;;;;6.37;3.30;;;;;;;10.86;100.00;99015.06;5115160;28;20207;-73
2023/10/05 01:47:54;;;;;;;5.57;3.10;;;;;;;10.77;100.00;99023.44;5114752;28;20717;-73
2023/10/05 01:50:22;;;;;;;3.67;3.17;;;;;;;10.75;100.00;99017.47;5115292;28;20203;-73
2023/10/05 01:53:01;;;;;;;6.27;3.30;;;;;;;10.85;100.00;99009.94;5114696;28;20662;-73
2023/10/05 01:55:29;;;;;;;4.90;3.13;;;;;;;10.86;100.00;99011.63;5115012;28;20252;-73
2023/10/05 01:57:57;;;;;;;4.20;3.10;;;;;;;10.77;100.00;99000.28;5114375;28;20231;-73
2023/10/05 02:00:25;;;;;;;5.23;3.50;;;;;;;10.77;100.00;98997.63;5114702;28;20578;-73
2023/10/05 02:02:55;;;;;;;8.07;3.33;;;;;;;10.83;100.00;98993.38;5114778;28;20207;-73
2023/10/05 02:05:22;;;;;;;6.63;3.33;;;;;;;10.73;100.00;98995.59;5114790;28;20214;-73
2023/10/05 02:07:50;;;;;;;5.53;3.30;;;;;;;10.78;100.00;99001.13;5114266;28;20725;-73
2023/10/05 02:10:20;;;;;;;6.77;3.60;;;;;;;10.77;100.00;98996.84;5114706;28;20205;-73
2023/10/05 02:12:53;;;;;;;5.63;3.47;;;;;;;10.63;100.00;99011.88;5114585;28;20202;-73
2023/10/05 02:15:20;;;;;;;6.00;3.23;;;;;;;10.52;100.00;99004.47;5114494;28;20228;-73
2023/10/05 02:17:48;;;;;;;6.13;3.73;;;;;;;10.46;100.00;99001.78;5114502;28;20219;-73
2023/10/05 02:20:38;;;;;;;4.43;3.47;;;;;;;10.49;100.00;99002.19;5114127;28;20222;-73
2023/10/05 02:23:17;;;;;;;4.37;3.17;;;;;;;10.35;100.00;99003.13;5114546;28;20286;-73
2023/10/05 02:25:44;;;;;;;7.23;3.57;;;;;;;10.31;100.00;99006.34;5114531;28;20282;-73
2023/10/05 02:28:22;;;;;;;7.37;3.10;;;;;;;10.27;100.00;98999.81;5114353;28;20230;-73
2023/10/05 02:30:49;;;;;;;4.50;3.10;;;;;;;10.34;100.00;99004.16;5113906;28;20218;-73
2023/10/05 02:33:16;;;;;;;7.07;3.23;;;;;;;10.25;100.00;99007.97;5114520;28;20204;-73
2023/10/05 02:35:48;;;;;;;5.23;2.83;;;;;;;10.34;100.00;98998.00;5114292;28;20203;-73
2023/10/05 02:38:19;;;;;;;3.87;2.77;;;;;;;10.29;100.00;98998.59;5114206;28;20607;-73
2023/10/05 02:40:46;;;;;;;6.83;3.30;;;;;;;10.16;100.00;99000.31;5114138;28;20208;-73
2023/10/05 02:43:15;;;;;;;5.73;3.17;;;;;;;10.15;100.00;98996.88;5114136;28;20207;-73
2023/10/05 02:45:42;;;;;;;7.37;3.50;;;;;;;10.12;100.00;98996.41;5114143;28;20262;-73
2023/10/05 02:48:10;;;;;;;5.97;3.30;;;;;;;10.11;100.00;98997.44;5113694;28;20725;-73
2023/10/05 02:50:38;;;;;;;6.50;3.13;;;;;;;10.11;100.00;98992.09;5113733;28;20665;-73
2023/10/05 02:53:06;;;;;;;4.50;2.97;;;;;;;10.10;100.00;98988.63;5114041;28;20203;-73
2023/10/05 02:55:36;;;;;;;4.53;3.37;;;;;;;10.18;100.00;98990.34;5114773;28;20303;-73
2023/10/05 02:58:04;;;;;;;5.80;3.10;;;;;;;10.28;100.00;98996.13;5114550;28;20309;-73
2023/10/05 03:00:34;;;;;;;5.93;3.27;;;;;;;10.26;100.00;98991.00;5113635;28;20758;-73
2023/10/05 03:03:03;;;;;;;4.73;3.10;;;;;;;10.27;100.00;98986.53;5114382;28;20206;-73
2023/10/05 03:05:32;;;;;;;4.80;3.40;;;;;;;10.31;100.00;98993.06;5113953;28;20289;-73
2023/10/05 03:07:58;;;;;;;4.80;3.00;;;;;;;10.24;100.00;98986.91;5113837;28;20227;-73
2023/10/05 03:10:26;;;;;;;5.73;3.00;;;;;;;10.20;100.00;98977.66;5114094;28;20248;-73
2023/10/05 03:12:52;;;;;;;5.47;3.00;;;;;;;10.28;100.00;98970.34;5113891;28;20207;-73
2023/10/05 03:15:23;;;;;;;4.33;3.17;;;;;;;10.34;100.00;98979.38;5113747;28;20211;-73
2023/10/05 03:17:52;;;;;;;3.80;3.20;;;;;;;10.39;100.00;98980.47;5113688;28;20591;-73
2023/10/05 03:20:21;;;;;;;4.37;2.53;;;;;;;10.36;100.00;98974.72;5116471;28;20591;-73
2023/10/05 03:22:47;;;;;;;4.60;3.17;;;;;;;10.23;100.00;98980.75;5117886;28;20210;-73
2023/10/05 03:25:16;;;;;;;4.47;3.20;;;;;;;10.40;100.00;98987.41;5118154;28;20211;-73
2023/10/05 03:27:45;;;;;;;4.63;2.87;;;;;;;10.34;100.00;98979.38;5117845;28;20237;-73
2023/10/05 03:30:14;;;;;;;7.23;3.20;;;;;;;10.36;100.00;98991.47;5117697;28;20242;-73
2023/10/05 03:32:41;;;;;;;6.03;2.90;;;;;;;10.44;100.00;98995.81;5117680;28;20203;-73
2023/10/05 03:35:09;;;;;;;4.70;3.00;;;;;;;10.45;100.00;98997.47;5117616;28;20199;-73
2023/10/05 03:37:39;;;;;;;5.23;3.10;;;;;;;10.49;100.00;98988.06;5117502;28;20223;-73
2023/10/05 03:40:19;;;;;;;5.60;3.10;;;;;;;10.51;100.00;99004.66;5117645;28;20215;-73
2023/10/05 03:42:46;;;;;;;3.63;2.90;;;;;;;10.47;100.00;99012.22;5117523;28;20251;-73
2023/10/05 03:45:16;;;;;;;4.83;2.90;;;;;;;10.43;100.00;99002.16;5117013;28;20203;-73
2023/10/05 03:47:43;;;;;;;4.70;2.83;;;;;;;10.41;100.00;99004.19;5116877;28;20778;-73
2023/10/05 03:50:16;;;;;;;4.97;2.80;;;;;;;10.41;100.00;99002.34;5117312;28;20203;-73
2023/10/05 03:52:44;;;;;;;4.40;2.97;;;;;;;10.45;100.00;99000.13;5117400;28;20192;-73
2023/10/05 03:55:11;;;;;;;6.07;2.73;;;;;;;10.45;100.00;99005.44;5117519;28;20210;-73
2023/10/05 03:57:42;;;;;;;3.57;3.00;;;;;;;10.44;100.00;99014.41;5117326;28;20259;-73
2023/10/05 04:00:23;;;;;;;6.00;3.37;;;;;;;10.46;100.00;99017.72;5117085;28;20257;-73
2023/10/05 04:02:52;;;;;;;4.97;2.87;;;;;;;10.55;100.00;99019.22;5116572;28;20656;-73
2023/10/05 04:05:22;;;;;;;3.73;2.83;;;;;;;10.48;100.00;99013.84;5116776;28;20211;-73
2023/10/05 04:07:49;;;;;;;6.13;3.53;;;;;;;10.53;100.00;99015.91;5116723;28;20219;-73
2023/10/05 04:10:21;;;;;;;4.83;3.10;;;;;;;10.54;100.00;99012.25;5116291;27;20199;-73
2023/10/05 04:12:49;;;;;;;5.63;3.10;;;;;;;10.48;100.00;99018.34;5116707;28;20191;-73
2023/10/05 04:15:18;;;;;;;3.53;3.13;;;;;;;10.54;100.00;99022.88;5116442;28;20283;-73
2023/10/05 04:17:48;;;;;;;7.27;3.03;;;;;;;10.49;100.00;99019.97;5116588;28;20223;-73
2023/10/05 04:20:19;;;;;;;6.97;3.47;;;;;;;10.43;100.00;99010.97;5116151;28;20254;-73
2023/10/05 04:22:47;;;;;;;8.80;3.37;;;;;;;10.44;100.00;99020.56;5116486;28;20188;-73
2023/10/05 04:25:14;;;;;;;4.60;3.17;;;;;;;10.37;100.00;99010.91;5116302;28;20662;-73
2023/10/05 04:27:41;;;;;;;6.97;3.70;;;;;;;10.34;100.00;99016.59;5116482;28;20226;-73
2023/10/05 04:30:09;;;;;;;6.23;3.37;;;;;;;10.36;100.00;99019.91;5115660;28;20195;-73
2023/10/05 04:32:35;;;;;;;4.97;3.63;;;;;;;10.28;100.00;99006.75;5115691;28;20612;-73
2023/10/05 04:35:10;;;;;;;5.17;3.10;;;;;;;10.30;100.00;99002.88;5116338;28;20211;-73
2023/10/05 04:37:37;;;;;;;5.20;3.50;;;;;;;10.21;100.00;99000.56;5116177;28;20309;-73
2023/10/05 04:40:07;;;;;;;6.77;3.40;;;;;;;10.35;100.00;98996.97;5116034;28;20230;-73
2023/10/05 04:42:34;;;;;;;6.57;3.30;;;;;;;10.41;100.00;98998.88;5116494;28;20315;-73
2023/10/05 04:45:02;;;;;;;5.33;2.87;;;;;;;10.34;100.00;99003.31;5116050;28;20247;-73
2023/10/05 04:47:29;;;;;;;5.70;2.77;;;;;;;10.25;100.00;99005.31;5116004;28;20223;-73
2023/10/05 04:49:58;;;;;;;4.13;2.83;;;;;;;10.20;100.00;99005.06;5115892;28;20219;-73
2023/10/05 04:52:31;;;;;;;5.90;2.67;;;;;;;10.28;100.00;99004.09;5115563;28;20290;-73
2023/10/05 04:55:11;;;;;;;3.70;2.97;;;;;;;10.26;100.00;99009.59;5116022;28;20281;-73
2023/10/05 04:57:40;;;;;;;5.83;3.07;;;;;;;10.31;100.00;99011.66;5115618;28;20310;-73
2023/10/05 05:00:49;;;;;;;5.03;3.37;;;;;;;10.41;100.00;99012.97;5114817;28;20306;-73
2023/10/05 05:03:32;;;;;;;5.07;3.60;;;;;;;10.36;100.00;99003.97;5114823;28;20214;-73
2023/10/05 05:06:10;;;;;;;5.43;3.30;;;;;;;10.30;100.00;99010.03;5115286;28;20610;-73
2023/10/05 05:08:38;;;;;;;5.47;3.20;;;;;;;10.26;100.00;99006.09;5115354;28;20534;-73
2023/10/05 05:11:11;;;;;;;9.30;3.83;;;;;;;10.21;100.00;99001.41;5115531;28;20203;-73
2023/10/05 05:13:38;;;;;;;7.43;3.57;;;;;;;10.23;100.00;98993.22;5115515;28;20188;-73
2023/10/05 05:16:07;;;;;;;7.77;3.60;;;;;;;10.16;100.00;98997.66;5114797;28;20287;-73
2023/10/05 05:18:37;;;;;;;6.37;3.80;;;;;;;10.15;100.00;99001.34;5115049;28;20258;-73
2023/10/05 05:21:07;;;;;;;7.30;3.67;;;;;;;10.22;100.00;98996.88;5114668;28;20225;-73
2023/10/05 05:23:35;;;;;;;7.77;3.67;;;;;;;10.18;100.00;99000.97;5114915;28;20549;-73
2023/10/05 05:26:03;;;;;;;8.70;3.60;;;;;;;10.12;100.00;98997.25;5114889;28;20207;-73
2023/10/05 05:28:29;;;;;;;6.10;3.47;;;;;;;10.11;100.00;99000.91;5114835;28;20231;-73
2023/10/05 05:30:56;;;;;;;6.97;3.83;;;;;;;10.04;100.00;98999.16;5115149;28;20205;-73
2023/10/05 05:33:23;;;;;;;9.20;3.73;;;;;;;10.03;100.00;99005.50;5114475;28;20288;-73
2023/10/05 05:35:51;;;;;;;8.73;3.97;;;;;;;10.05;100.00;99009.63;5114319;28;20716;-73
2023/10/05 05:38:18;;;;;;;7.83;3.87;;;;;;;10.13;100.00;99006.00;5114596;28;20219;-73
2023/10/05 05:40:44;;;;;;;9.77;4.17;;;;;;;10.12;100.00;99015.00;5114808;28;20259;-73
2023/10/05 05:43:12;;;;;;;4.97;3.57;;;;;;;10.15;100.00;99011.97;5114214;28;20575;-73
2023/10/05 05:45:43;;;;;;;6.57;4.00;;;;;;;10.15;100.00;99028.75;5114209;28;20580;-73
2023/10/05 05:48:13;;;;;;;8.90;4.17;;;;;;;10.28;100.00;99022.69;5114339;28;20227;-73
2023/10/05 05:50:43;;;;;;;7.63;3.50;;;;;;;10.31;100.00;99028.44;5114544;28;20192;-73
2023/10/05 05:53:12;;;;;;;6.30;3.90;;;;;;;10.39;100.00;99035.44;5115024;28;20290;-73
2023/10/05 05:55:42;;;;;;;6.93;3.93;;;;;;;10.34;100.00;99019.25;5114280;28;20272;-73
2023/10/05 05:58:14;;;;;;;6.37;3.87;;;;;;;10.28;100.00;99002.25;5114134;28;20642;-73
2023/10/05 06:00:41;;;;;;;5.90;3.40;;;;;;;10.19;100.00;99011.38;5114608;28;20215;-73
2023/10/05 06:03:10;;;;;;;6.27;3.60;;;;;;;10.35;100.00;99018.25;5114572;27;20203;-73
2023/10/05 06:05:37;;;;;;;5.70;3.30;;;;;;;10.24;100.00;99008.16;5114515;28;20551;-73
2023/10/05 06:08:04;;;;;;;7.03;3.47;;;;;;;10.18;100.00;99011.59;5114035;28;20737;-73
2023/10/05 06:10:34;;;;;;;5.13;3.50;;;;;;;10.13;100.00;99019.28;5114137;28;20678;-73
2023/10/05 06:12:59;;;;;;;6.30;3.70;;;;;;;10.17;100.00;99018.72;5114008;28;20722;-73
2023/10/05 06:15:26;;;;;;;6.70;3.83;;;;;;;10.21;100.00;99019.16;5113652;28;20223;-73
2023/10/05 06:17:52;;;;;;;4.80;3.13;;;;;;;10.29;100.00;99014.53;5114192;28;20329;-73
2023/10/05 06:20:19;;;;;;;5.53;3.60;;;;;;;10.31;100.00;99011.66;5114147;28;20219;-73
2023/10/05 06:22:49;;;;;;;6.10;3.00;;;;;;;10.37;100.00;99024.19;5113922;28;20222;-73
2023/10/05 06:25:16;;;;;;;6.00;3.30;;;;;;;10.43;100.00;99031.38;5113746;28;20203;-73
2023/10/05 06:27:44;;;;;;;4.60;3.10;;;;;;;10.35;100.00;99024.38;5113669;28;20584;-73
2023/10/05 06:30:15;;;;;;;5.27;2.93;;;;;;;10.40;100.00;99024.63;5113929;27;20199;-73
2023/10/05 06:32:43;;;;;;;6.73;3.50;;;;;;;10.39;100.00;99030.97;5113420;28;20213;-73
2023/10/05 06:35:11;;;;;;;5.80;3.10;;;;;;;10.54;100.00;99034.31;5113802;28;20350;-73
2023/10/05 06:37:39;;;;;;;4.93;2.97;;;;;;;10.63;100.00;99040.31;5113675;27;20317;-73
2023/10/05 06:40:12;;;;;;;4.37;3.03;;;;;;;10.78;100.00;99049.81;5113475;28;20567;-73
2023/10/05 06:42:41;;;;;;;7.93;3.30;;;;;;;10.77;100.00;99050.03;5113808;28;20235;-73
2023/10/05 06:45:11;;;;;;;4.30;3.00;;;;;;;10.81;100.00;99046.78;5113689;28;20287;-74
2023/10/05 06:47:37;;;;;;;6.20;3.70;;;;;;;10.91;100.00;99052.53;5113215;28;20258;-73
2023/10/05 06:50:08;;;;;;;7.33;3.43;;;;;;;10.97;100.00;99056.25;5113342;28;20208;-73
2023/10/05 06:52:43;;;;;;;5.27;3.10;;;;;;;11.00;100.00;99055.88;5113853;28;20222;-73
2023/10/05 06:55:14;;;;;;;4.37;3.30;;;;;;;10.93;100.00;99058.50;5112795;28;20259;-73
2023/10/05 06:57:43;;;;;;;4.80;3.37;;;;;;;11.09;100.00;99054.69;5113413;28;20219;-73
2023/10/05 07:00:16;;;;;;;6.60;3.73;;;;;;;11.13;100.00;99065.75;5113576;28;20272;-73
2023/10/05 07:02:50;;;;;;;6.87;3.63;;;;;;;11.11;100.00;99065.94;5113522;28;20593;-73
2023/10/05 07:05:17;;;;;;;6.67;3.60;;;;;;;11.24;100.00;99068.69;5113955;28;20191;-73
2023/10/05 07:07:44;;;;;;;4.60;3.63;;;;;;;11.13;100.00;99063.94;5113269;28;20735;-73
2023/10/05 07:10:15;;;;;;;5.53;3.60;;;;;;;11.14;100.00;99070.91;5113717;28;20210;-73
2023/10/05 07:12:45;;;;;;;5.03;3.30;;;;;;;11.12;100.00;99072.91;5113754;28;20286;-73
2023/10/05 07:15:12;;;;;;;8.43;3.87;;;;;;;11.26;100.00;99076.47;5113511;28;20222;-73
2023/10/05 07:17:38;;;;;;;5.53;3.50;;;;;;;11.32;100.00;99087.16;5113560;28;20227;-73
2023/10/05 07:20:11;;;;;;;5.47;4.00;;;;;;;11.24;100.00;99079.31;5113148;28;20223;-73
2023/10/05 07:22:37;;;;;;;8.43;3.40;;;;;;;11.28;100.00;99080.56;5113669;28;20180;-73
2023/10/05 07:25:04;;;;;;;5.57;3.40;;;;;;;11.29;100.00;99066.25;5113025;28;20646;-73
2023/10/05 07:27:31;;;;;;;6.23;3.70;;;;;;;11.40;100.00;99078.97;5113032;28;20227;-73
2023/10/05 07:29:57;;;;;;;4.50;3.40;;;;;;;11.49;100.00;99077.78;5112888;28;20662;-73
2023/10/05 07:32:24;;;;;;;4.23;3.10;;;;;;;11.61;100.00;99084.19;5113386;28;20233;-73
2023/10/05 07:34:51;;;;;;;5.67;3.17;;;;;;;11.71;100.00;99073.19;5113370;28;20212;-73
2023/10/05 07:37:18;;;;;;;6.97;3.20;;;;;;;11.72;100.00;99080.13;5113260;28;20203;-73
2023/10/05 07:39:45;;;;;;;5.63;3.03;;;;;;;11.78;100.00;99089.97;5113357;28;20204;-73
2023/10/05 07:42:11;;;;;;;5.90;2.93;;;;;;;11.88;100.00;99095.75;5113327;28;20207;-73
2023/10/05 07:44:39;;;;;;;6.30;3.40;;;;;;;12.13;100.00;99092.31;5113342;28;20212;-73
2023/10/05 07:47:06;;;;;;;5.27;3.27;;;;;;;11.90;100.00;99094.53;5113117;28;20205;-73
2023/10/05 07:49:35;;;;;;;3.93;3.20;;;;;;;12.07;100.00;99098.44;5113345;28;20570;-73
2023/10/05 07:52:10;;;;;;;5.03;2.80;;;;;;;12.21;100.00;99099.31;5112837;28;20239;-73
2023/10/05 07:54:38;;;;;;;7.37;3.10;;;;;;;12.27;100.00;99096.63;5113082;28;20189;-73
2023/10/05 07:57:07;;;;;;;4.07;2.73;;;;;;;12.37;100.00;99099.72;5113129;28;20245;-73
2023/10/05 07:59:34;;;;;;;5.23;3.17;;;;;;;12.36;100.00;99103.41;5113341;28;20205;-73
2023/10/05 08:02:01;;;;;;;6.23;3.27;;;;;;;12.42;100.00;99091.09;5112721;28;20229;-73
2023/10/05 08:04:28;;;;;;;5.17;3.20;;;;;;;12.51;100.00;99100.50;5113158;28;20330;-73
2023/10/05 08:06:55;;;;;;;5.30;3.23;;;;;;;12.72;100.00;99103.81;5116484;28;20201;-73
2023/10/05 08:09:21;;;;;;;4.63;3.13;;;;;;;12.58;100.00;99102.19;5116713;28;20235;-73
2023/10/05 08:11:50;;;;;;;6.77;3.37;;;;;;;12.56;100.00;99101.56;5116260;28;20682;-73
2023/10/05 08:14:17;;;;;;;5.40;3.20;;;;;;;12.65;100.00;99102.16;5116471;28;20228;-73
2023/10/05 08:16:45;;;;;;;5.93;3.57;;;;;;;12.67;100.00;99110.78;5116337;27;20240;-73
2023/10/05 08:19:11;;;;;;;6.57;3.37;;;;;;;12.71;100.00;99112.03;5116541;28;20226;-73
2023/10/05 08:21:38;;;;;;;5.87;3.33;;;;;;;12.82;100.00;99117.53;5116895;28;20222;-73
2023/10/05 08:24:06;;;;;;;5.70;3.60;;;;;;;13.00;100.00;99120.44;5116173;28;20578;-73
2023/10/05 08:26:33;;;;;;;7.60;4.00;;;;;;;13.07;100.00;99126.56;5116470;28;20210;-73
2023/10/05 08:29:01;;;;;;;8.27;3.97;;;;;;;13.39;100.00;99139.00;5115978;28;20254;-73
2023/10/05 08:31:28;;;;;;;6.83;4.03;;;;;;;13.30;100.00;99139.44;5116538;28;20207;-73
2023/10/05 08:33:54;;;;;;;5.57;4.00;;;;;;;13.21;100.00;99132.69;5116359;28;20209;-75
2023/10/05 08:36:22;;;;;;;7.43;3.80;;;;;;;13.28;100.00;99139.66;5116179;28;20210;-73
2023/10/05 08:38:49;;;;;;;7.53;3.73;;;;;;;13.35;100.00;99131.63;5115951;28;20257;-73
2023/10/05 08:41:31;;;;;;;6.77;3.57;;;;;;;13.53;100.00;99132.59;5115950;28;20219;-73
2023/10/05 08:43:59;;;;;;;6.23;3.77;;;;;;;13.39;100.00;99125.63;5116253;28;20202;-73
2023/10/05 08:46:26;;;;;;;5.90;3.63;;;;;;;13.48;100.00;99119.03;5116159;28;20203;-73
2023/10/05 08:48:55;;;;;;;7.47;3.67;;;;;;;13.46;100.00;99123.78;5115976;28;20226;-73
2023/10/05 08:51:24;;;;;;;10.57;4.23;;;;;;;13.59;100.00;99126.41;5115859;28;20211;-73
2023/10/05 08:53:55;;;;;;;6.67;3.43;;;;;;;13.64;100.00;99134.59;5115946;28;20206;-73
2023/10/05 08:56:22;;;;;;;5.50;3.80;;;;;;;13.65;100.00;99130.88;5115687;28;20207;-73
2023/10/05 08:58:49;;;;;;;8.77;4.37;;;;;;;13.81;100.00;99127.75;5115259;28;20227;-73
2023/10/05 09:01:33;;;;;;;7.87;3.83;;;;;;;14.05;100.00;99120.81;5115303;28;20227;-73
2023/10/05 09:04:11;;;;;;;6.00;3.43;;;;;;;14.32;100.00;99124.97;5115242;28;20688;-73
2023/10/05 09:06:52;;;;;;;6.60;4.13;;;;;;;14.39;100.00;99118.53;5115493;28;20205;-73
2023/10/05 09:09:38;;;;;;;6.07;4.10;;;;;;;14.50;100.00;99123.19;5115311;28;20313;-73
2023/10/05 09:12:34;;;;;;;7.20;3.80;;;;;;;14.74;100.00;99119.69;5114821;28;20631;-73
2023/10/05 09:15:19;;;;;;;9.20;3.90;;;;;;;14.86;100.00;99117.94;5115022;28;20213;-73
2023/10/05 09:17:57;;;;;;;10.10;4.37;;;;;;;14.96;100.00;99123.63;5114113;27;20223;-73
2023/10/05 09:20:32;;;;;;;8.27;4.03;;;;;;;15.11;100.00;99117.91;5115027;28;20206;-73
2023/10/05 09:23:01;;;;;;;9.63;4.30;;;;;;;15.23;100.00;99114.25;5115224;28;20234;-73
2023/10/05 09:25:35;;;;;;;9.27;4.20;;;;;;;15.29;100.00;99121.41;5114904;28;20203;-73
2023/10/05 09:28:12;;;;;;;7.27;4.00;;;;;;;15.51;100.00;99132.53;5114893;28;20222;-73
2023/10/05 09:30:56;;;;;;;7.60;3.80;;;;;;;15.30;100.00;99135.63;5114919;28;20273;-73
2023/10/05 09:33:25;;;;;;;8.60;4.10;;;;;;;15.54;100.00;99127.53;5115033;28;20190;-73
2023/10/05 09:35:52;;;;;;;7.57;4.00;;;;;;;15.70;100.00;99126.13;5114723;28;20619;-73
2023/10/05 09:38:20;;;;;;;9.33;4.70;;;;;;;15.45;100.00;99136.09;5114817;28;20223;-73
2023/10/05 09:40:48;;;;;;;12.50;4.37;;;;;;;15.42;100.00;99132.00;5114337;28;20223;-73
2023/10/05 09:43:18;;;;;;;10.77;4.23;;;;;;;15.54;100.00;99134.75;5114947;27;20203;-73
2023/10/05 09:45:49;;;;;;;8.97;4.23;;;;;;;15.49;100.00;99122.03;5114901;28;20257;-73
2023/10/05 09:48:19;;;;;;;10.60;4.40;;;;;;;15.70;100.00;99120.75;5114830;28;20242;-73
2023/10/05 09:50:47;;;;;;;12.23;4.77;;;;;;;15.71;100.00;99125.06;5113735;28;20256;-73
2023/10/05 09:53:17;;;;;;;9.57;4.47;;;;;;;15.64;100.00;99127.00;5115116;28;20206;-73
2023/10/05 09:55:53;;;;;;;9.70;4.63;;;;;;;15.45;100.00;99142.28;5115126;28;20194;-73
2023/10/05 09:58:21;;;;;;;11.70;5.00;;;;;;;15.67;100.00;99142.66;5114543;28;20227;-74
2023/10/05 10:00:48;;;;;;;11.33;4.80;;;;;;;15.61;100.00;99144.34;5114745;28;20219;-74
2023/10/05 10:03:17;;;;;;;8.00;4.30;;;;;;;15.47;100.00;99145.56;5114231;28;20200;-73
2023/10/05 10:06:17;;;;;;;11.50;4.73;;;;;;;15.89;100.00;99125.03;5114217;28;20585;-73
2023/10/05 10:08:53;;;;;;;11.70;4.80;;;;;;;15.59;100.00;99125.00;5103261;28;20230;-73
2023/10/05 10:11:24;;;;;;;12.23;5.80;;;;;;;15.52;100.00;99126.13;5114554;28;20603;-73
2023/10/05 10:14:00;;;;;;;9.77;4.80;;;;;;;15.55;100.00;99123.81;5114535;28;20191;-73
2023/10/05 10:16:28;;;;;;;8.87;4.70;;;;;;;15.23;100.00;99129.50;5114092;28;20210;-73
2023/10/05 10:18:58;;;;;;;8.63;4.20;;;;;;;15.76;100.00;99126.03;5114082;28;20669;-73
2023/10/05 10:21:32;;;;;;;9.97;4.50;;;;;;;16.02;100.00;99116.81;5114106;28;20238;-73
2023/10/05 10:24:11;;;;;;;10.40;4.70;;;;;;;16.04;100.00;99120.06;5114378;28;20196;-73
2023/10/05 10:27:14;;;;;;;10.33;4.17;;;;;;;16.18;100.00;99119.66;5113953;28;20187;-73
2023/10/05 10:29:43;;;;;;;8.70;4.00;;;;;;;16.30;100.00;99125.06;5113728;28;20531;-73
2023/10/05 10:32:22;;;;;;;8.27;3.97;;;;;;;16.12;100.00;99120.59;5113826;28;20195;-73
2023/10/05 10:34:55;;;;;;;8.87;4.40;;;;;;;16.26;100.00;99130.09;5113440;28;20646;-73
2023/10/05 10:37:44;;;;;;;8.10;3.67;;;;;;;16.60;100.00;99136.63;5113887;28;20233;-73
2023/10/05 10:40:25;;;;;;;8.83;4.20;;;;;;;16.51;99.95;99135.31;5113639;28;20569;-73
2023/10/05 10:43:06;;;;;;;10.93;4.50;;;;;;;16.20;100.00;99132.84;5113483;28;20669;-73
2023/10/05 10:45:46;;;;;;;9.93;4.47;;;;;;;16.46;100.00;99137.88;5114089;28;20187;-73
2023/10/05 10:48:20;;;;;;;11.70;4.57;;;;;;;16.41;100.00;99135.03;5113745;28;20223;-73
2023/10/05 10:50:50;;;;;;;8.37;4.07;;;;;;;16.35;100.00;99131.38;5113577;28;20193;-73
2023/10/05 10:53:17;;;;;;;11.50;3.97;;;;;;;16.15;100.00;99133.53;5113279;28;20658;-73
2023/10/05 10:55:47;;;;;;;10.33;4.43;;;;;;;16.20;100.00;99130.19;5112970;28;20244;-73
2023/10/05 10:58:16;;;;;;;7.27;3.80;;;;;;;16.37;100.00;99140.00;5113588;28;20608;-73
2023/10/05 11:00:57;;;;;;;7.83;4.10;;;;;;;16.74;100.00;99124.59;5113784;28;20199;-73
2023/10/05 11:03:26;;;;;;;12.90;4.47;;;;;;;16.74;100.00;99127.28;5113174;28;20203;-73
2023/10/05 11:05:54;;;;;;;9.63;4.43;;;;;;;16.88;99.91;99121.44;5113763;28;20211;-73
2023/10/05 11:08:21;;;;;;;11.00;4.67;;;;;;;16.98;99.56;99121.69;5114220;28;20223;-73
2023/10/05 11:11:07;;;;;;;8.77;3.90;;;;;;;16.87;98.90;99119.00;5113251;28;20219;-73
2023/10/05 11:13:33;;;;;;;11.53;4.40;;;;;;;16.68;100.00;99118.28;5113508;28;20187;-73
2023/10/05 11:16:00;;;;;;;9.17;4.13;;;;;;;16.69;96.58;99122.59;5113361;28;20211;-73
2023/10/05 11:18:31;;;;;;;7.90;4.10;;;;;;;16.55;95.16;99126.56;5113244;28;20223;-73
2023/10/05 11:21:13;;;;;;;9.07;3.77;;;;;;;16.59;95.46;99133.09;5113437;28;20278;-73
2023/10/05 11:23:56;;;;;;;8.13;3.77;;;;;;;16.56;95.79;99125.50;5113261;28;20184;-73
2023/10/05 11:26:33;;;;;;;5.87;3.20;;;;;;;16.82;96.79;99127.75;5113664;28;20565;-73
2023/10/05 11:29:07;;;;;;;9.03;3.93;;;;;;;17.23;94.46;99126.81;5112883;28;20705;-73
2023/10/05 11:31:35;;;;;;;6.77;3.87;;;;;;;16.94;89.36;99109.78;5112945;28;20278;-73
2023/10/05 11:34:04;;;;;;;10.00;4.00;;;;;;;16.81;89.72;99111.88;5113191;28;20263;-74
2023/10/05 11:36:33;;;;;;;8.53;4.37;;;;;;;16.54;88.92;99108.81;5113373;28;20570;-73
2023/10/05 11:39:03;;;;;;;7.13;3.60;;;;;;;16.92;90.13;99109.19;5113104;28;20292;-73
2023/10/05 11:41:32;;;;;;;6.97;4.00;;;;;;;17.05;87.05;99113.53;5115802;28;20219;-73
2023/10/05 11:43:59;;;;;;;7.77;3.97;;;;;;;17.05;83.78;99108.16;5116962;28;20203;-74